Terminal Aerodrome Forecast
Issued by NWS

Home | Current Version | Previous Version | Text Only | Print | Product List | Glossary On
Versions: 1 2 3 4 5 6 7 8 9 10 11 12 13 14 15 16
468
FTUS46 KSEW 240520
TAFPAE
TAF
KPAE 240520Z 2406/2506 34003KT P6SM OVC070
     FM241200 27004KT P6SM SCT020 OVC040
     FM241900 30006KT P6SM SCT040
     FM250300 34004KT P6SM BKN040=

USA.gov is the U.S. government's official web portal to all federal, state and local government web resources and services.